createdAt,value
2018-11-13T00:00:51.495Z,95.6
2018-11-13T00:01:52.930Z,95.2
2018-11-13T00:02:54.407Z,95.3
2018-11-13T00:03:55.813Z,95.4
2018-11-13T00:04:57.228Z,95.0
2018-11-13T00:05:58.616Z,95.7
2018-11-13T00:07:00.043Z,95.6
2018-11-13T00:08:01.393Z,95.6
2018-11-13T00:09:02.902Z,96.3
2018-11-13T00:10:04.279Z,95.9
2018-11-13T00:11:05.739Z,96.2
2018-11-13T00:12:07.100Z,96.2
2018-11-13T00:13:08.562Z,96.2
2018-11-13T00:14:09.933Z,96.4
2018-11-13T00:15:11.368Z,96.4
2018-11-13T00:16:12.770Z,95.9
2018-11-13T00:17:14.194Z,96.3
2018-11-13T00:18:15.588Z,96.4
2018-11-13T00:19:16.978Z,96.4
2018-11-13T00:20:18.403Z,96.3
2018-11-13T00:21:19.815Z,96.5
2018-11-13T00:22:21.188Z,96.9
2018-11-13T00:23:22.689Z,96.6
2018-11-13T00:24:24.090Z,96.7
2018-11-13T00:25:25.485Z,96.7
2018-11-13T00:26:26.903Z,96.7
2018-11-13T00:27:28.387Z,96.7
2018-11-13T00:28:29.775Z,96.7
2018-11-13T00:29:31.126Z,96.7
2018-11-13T00:30:32.434Z,96.7
2018-11-13T00:31:33.807Z,96.9
2018-11-13T00:32:35.164Z,96.9
2018-11-13T00:33:36.567Z,96.6
2018-11-13T00:34:37.974Z,96.6
2018-11-13T00:35:39.415Z,96.4
2018-11-13T00:36:40.823Z,96.7
2018-11-13T00:37:42.287Z,96.8
2018-11-13T00:38:43.833Z,97.4
2018-11-13T00:39:45.307Z,97.0
2018-11-13T00:40:46.685Z,97.2
2018-11-13T00:41:48.102Z,96.7
2018-11-13T00:42:49.529Z,97.5
2018-11-13T00:43:50.912Z,97.1
2018-11-13T00:44:52.288Z,97.1
2018-11-13T00:45:54.184Z,97.4
2018-11-13T00:46:55.055Z,97.4
2018-11-13T00:47:56.429Z,97.2
2018-11-13T00:48:57.814Z,98.0
2018-11-13T00:49:59.267Z,97.6
2018-11-13T00:51:00.654Z,97.8
2018-11-13T00:52:02.070Z,97.4
2018-11-13T00:53:03.458Z,97.7
2018-11-13T00:54:04.867Z,97.8
2018-11-13T00:55:06.263Z,97.3
2018-11-13T00:56:07.689Z,97.7
2018-11-13T00:57:09.114Z,97.7
2018-11-13T00:58:10.597Z,98.1
2018-11-13T00:59:12.046Z,98.1
2018-11-13T01:00:13.500Z,98.5
2018-11-13T01:01:14.815Z,98.3
2018-11-13T01:02:16.229Z,98.2
2018-11-13T01:03:17.616Z,98.1
2018-11-13T01:04:19.062Z,98.8
2018-11-13T01:05:20.532Z,98.5
2018-11-13T01:06:21.850Z,98.8
2018-11-13T01:07:23.267Z,98.8
2018-11-13T01:08:24.646Z,98.3
2018-11-13T01:09:26.040Z,98.9
2018-11-13T01:10:27.475Z,98.9
2018-11-13T01:11:28.834Z,98.9
2018-11-13T01:12:30.264Z,99.1
2018-11-13T01:13:31.690Z,98.9
2018-11-13T01:14:33.092Z,99.4
2018-11-13T01:15:34.463Z,99.5
2018-11-13T01:16:35.967Z,98.9
2018-11-13T01:17:37.342Z,99.2
2018-11-13T01:18:38.783Z,99.0
2018-11-13T01:19:40.177Z,98.7
2018-11-13T01:20:41.608Z,98.9
2018-11-13T01:21:42.969Z,98.9
2018-11-13T01:22:44.428Z,98.9
2018-11-13T01:23:45.862Z,98.9
2018-11-13T01:24:47.267Z,99.1
2018-11-13T01:25:48.660Z,99.2
2018-11-13T01:26:50.089Z,98.9
2018-11-13T01:27:51.485Z,99.2
2018-11-13T01:28:52.938Z,99.1
2018-11-13T01:29:54.297Z,98.9
2018-11-13T01:30:55.753Z,98.9
2018-11-13T01:31:57.130Z,98.9
2018-11-13T01:32:58.548Z,98.9
2018-11-13T01:33:59.975Z,98.9
2018-11-13T01:35:01.390Z,99.4
2018-11-13T01:36:02.794Z,99.7
2018-11-13T01:37:04.303Z,99.0
2018-11-13T01:38:05.693Z,99.1
2018-11-13T01:39:07.166Z,99.2
2018-11-13T01:40:08.610Z,99.3
2018-11-13T01:41:10.045Z,99.7
2018-11-13T01:42:11.493Z,99.9
2018-11-13T01:43:12.894Z,99.3
2018-11-13T01:44:14.248Z,100.0
2018-11-13T01:45:15.710Z,99.6
2018-11-13T01:46:17.111Z,99.2
2018-11-13T01:47:18.578Z,99.6
2018-11-13T01:48:19.959Z,99.9
2018-11-13T01:49:21.324Z,99.6
2018-11-13T01:50:22.759Z,99.5
2018-11-13T01:51:24.212Z,99.8
2018-11-13T01:52:25.615Z,99.8
2018-11-13T01:53:26.992Z,99.8
2018-11-13T01:54:28.410Z,99.7
2018-11-13T01:55:29.882Z,99.4
2018-11-13T01:56:31.332Z,100.0
2018-11-13T01:57:32.718Z,100.0
2018-11-13T01:58:34.309Z,100.0
2018-11-13T01:59:35.498Z,100.0
2018-11-13T02:00:36.944Z,100.0
2018-11-13T02:01:38.366Z,100.0
2018-11-13T02:02:39.775Z,100.0
2018-11-13T02:03:41.208Z,99.8
2018-11-13T02:04:42.573Z,100.0
2018-11-13T02:05:43.988Z,100.0
2018-11-13T02:06:45.363Z,100.0
2018-11-13T02:07:46.799Z,100.0
2018-11-13T02:08:48.204Z,100.0
2018-11-13T02:09:49.634Z,100.0
2018-11-13T02:10:51.013Z,100.0
2018-11-13T02:11:52.454Z,100.0
2018-11-13T02:12:53.878Z,100.0
2018-11-13T02:13:55.328Z,100.0
2018-11-13T02:14:56.725Z,100.0
2018-11-13T02:15:58.109Z,100.0
2018-11-13T02:16:59.505Z,100.0
2018-11-13T02:18:00.932Z,100.0
2018-11-13T02:19:02.359Z,100.0
2018-11-13T02:20:03.848Z,100.0
2018-11-13T02:21:05.223Z,100.0
2018-11-13T02:22:06.650Z,100.0
2018-11-13T02:23:08.030Z,100.0
2018-11-13T02:24:09.515Z,100.0
2018-11-13T02:25:10.898Z,100.0
2018-11-13T02:26:12.318Z,100.0
2018-11-13T02:27:13.679Z,100.0
2018-11-13T02:28:15.074Z,100.0
2018-11-13T02:29:16.435Z,100.0
2018-11-13T02:30:17.857Z,100.0
2018-11-13T02:31:19.240Z,100.0
2018-11-13T02:32:20.678Z,100.0
2018-11-13T02:33:22.058Z,100.0
2018-11-13T02:34:23.551Z,100.0
2018-11-13T02:35:25.099Z,100.0
2018-11-13T02:36:26.469Z,100.0
2018-11-13T02:37:27.853Z,100.0
2018-11-13T02:38:29.283Z,100.0
2018-11-13T02:39:30.678Z,100.0
2018-11-13T02:40:32.103Z,100.0
2018-11-13T02:41:33.493Z,100.0
2018-11-13T02:42:34.896Z,100.0
2018-11-13T02:43:36.389Z,100.0
2018-11-13T02:44:37.813Z,100.0
2018-11-13T02:45:39.215Z,100.0
2018-11-13T02:46:40.881Z,100.0
2018-11-13T02:47:42.252Z,100.0
2018-11-13T02:48:43.889Z,100.0
2018-11-13T02:49:45.298Z,100.0
2018-11-13T02:50:46.659Z,100.0
2018-11-13T02:51:48.073Z,100.0
2018-11-13T02:52:49.432Z,100.0
2018-11-13T02:53:50.838Z,100.0
2018-11-13T02:54:52.229Z,100.0
2018-11-13T02:55:53.607Z,100.0
2018-11-13T02:56:55.025Z,100.0
2018-11-13T02:57:57.150Z,100.0
2018-11-13T02:58:58.509Z,100.0
2018-11-13T02:59:59.871Z,100.0
2018-11-13T03:01:01.236Z,100.0
2018-11-13T03:02:02.595Z,100.0
2018-11-13T03:03:03.994Z,100.0
2018-11-13T03:04:05.380Z,100.0
2018-11-13T03:05:06.760Z,100.0
2018-11-13T03:06:08.135Z,100.0
2018-11-13T03:07:09.494Z,100.0
2018-11-13T03:08:10.850Z,100.0
2018-11-13T03:09:12.245Z,100.0
2018-11-13T03:10:13.622Z,100.0
2018-11-13T03:11:15.029Z,100.0
2018-11-13T03:12:16.423Z,100.0
2018-11-13T03:13:17.833Z,100.0
2018-11-13T03:14:19.196Z,100.0
2018-11-13T03:15:20.605Z,100.0
2018-11-13T03:16:21.994Z,100.0
2018-11-13T03:17:23.458Z,100.0
2018-11-13T03:18:24.840Z,100.0
2018-11-13T03:19:26.236Z,100.0
2018-11-13T03:20:27.655Z,100.0
2018-11-13T03:21:29.135Z,100.0
2018-11-13T03:22:30.498Z,100.0
2018-11-13T03:23:31.916Z,100.0
2018-11-13T03:24:33.309Z,100.0
2018-11-13T03:25:34.774Z,100.0
2018-11-13T03:26:36.174Z,100.0
2018-11-13T03:27:37.565Z,100.0
2018-11-13T03:28:38.944Z,100.0
2018-11-13T03:29:40.356Z,100.0
2018-11-13T03:30:41.754Z,100.0
2018-11-13T03:31:43.168Z,100.0
2018-11-13T03:32:44.547Z,100.0
2018-11-13T03:33:45.970Z,100.0
2018-11-13T03:34:47.360Z,100.0
2018-11-13T03:35:48.766Z,100.0
2018-11-13T03:36:50.130Z,100.0
2018-11-13T03:37:51.510Z,100.0
2018-11-13T03:38:52.880Z,100.0
2018-11-13T03:39:54.353Z,100.0
2018-11-13T03:40:55.739Z,100.0
2018-11-13T03:41:57.219Z,100.0
2018-11-13T03:42:58.615Z,100.0
2018-11-13T03:43:59.985Z,100.0
2018-11-13T03:45:01.374Z,100.0
2018-11-13T03:46:02.805Z,100.0
2018-11-13T03:47:04.175Z,100.0
2018-11-13T03:48:05.609Z,100.0
2018-11-13T03:49:07.025Z,100.0
2018-11-13T03:50:08.465Z,100.0
2018-11-13T03:51:09.845Z,100.0
2018-11-13T03:52:11.325Z,100.0
2018-11-13T03:53:12.721Z,100.0
2018-11-13T03:54:14.170Z,100.0
2018-11-13T03:55:15.570Z,100.0
2018-11-13T03:56:16.966Z,100.0
2018-11-13T03:57:18.342Z,100.0
2018-11-13T03:58:19.761Z,100.0
2018-11-13T03:59:21.120Z,100.0
2018-11-13T04:00:22.595Z,100.0
2018-11-13T04:01:24.008Z,100.0
2018-11-13T04:02:25.450Z,100.0
2018-11-13T04:03:27.724Z,100.0
2018-11-13T04:04:29.080Z,100.0
2018-11-13T04:05:30.462Z,100.0
2018-11-13T04:06:31.816Z,100.0
2018-11-13T04:07:33.192Z,100.0
2018-11-13T04:08:34.576Z,100.0
2018-11-13T04:09:36.011Z,100.0
2018-11-13T04:10:37.406Z,100.0
2018-11-13T04:11:38.769Z,100.0
2018-11-13T04:12:40.125Z,100.0
2018-11-13T04:13:41.489Z,100.0
2018-11-13T04:14:42.879Z,100.0
2018-11-13T04:15:44.276Z,100.0
2018-11-13T04:16:45.645Z,100.0
2018-11-13T04:17:47.074Z,100.0
2018-11-13T04:18:48.478Z,100.0
2018-11-13T04:19:49.890Z,100.0
2018-11-13T04:20:51.268Z,100.0
2018-11-13T04:21:52.714Z,100.0
2018-11-13T04:22:54.093Z,100.0
2018-11-13T04:23:55.484Z,100.0
2018-11-13T04:24:57.755Z,100.0
2018-11-13T04:25:59.126Z,100.0
2018-11-13T04:27:00.475Z,100.0
2018-11-13T04:28:01.890Z,100.0
2018-11-13T04:29:03.196Z,100.0
2018-11-13T04:30:04.570Z,100.0
2018-11-13T04:31:05.917Z,100.0
2018-11-13T04:32:07.275Z,100.0
2018-11-13T04:33:08.631Z,100.0
2018-11-13T04:34:09.987Z,100.0
2018-11-13T04:35:11.349Z,100.0
2018-11-13T04:36:12.700Z,100.0
2018-11-13T04:37:14.061Z,100.0
2018-11-13T04:38:15.419Z,100.0
2018-11-13T04:39:16.771Z,100.0
2018-11-13T04:40:18.148Z,100.0
2018-11-13T04:41:19.500Z,100.0
2018-11-13T04:42:20.861Z,100.0
2018-11-13T04:43:22.224Z,100.0
2018-11-13T04:44:23.576Z,100.0
2018-11-13T04:45:24.945Z,100.0
2018-11-13T04:46:26.311Z,100.0
2018-11-13T04:47:27.667Z,100.0
2018-11-13T04:48:29.036Z,100.0
2018-11-13T04:49:30.397Z,100.0
2018-11-13T04:50:31.765Z,100.0
2018-11-13T04:51:33.174Z,100.0
2018-11-13T04:52:34.471Z,100.0
2018-11-13T04:53:35.832Z,100.0
2018-11-13T04:54:37.191Z,100.0
2018-11-13T04:55:38.550Z,100.0
2018-11-13T04:56:39.911Z,100.0
2018-11-13T04:57:41.272Z,100.0
2018-11-13T04:58:42.633Z,100.0
2018-11-13T04:59:43.990Z,100.0
2018-11-13T05:00:45.363Z,100.0
2018-11-13T05:01:46.715Z,100.0
2018-11-13T05:02:48.128Z,100.0
2018-11-13T05:03:49.426Z,100.0
2018-11-13T05:04:50.789Z,100.0
2018-11-13T05:05:52.141Z,100.0
2018-11-13T05:06:53.505Z,100.0
2018-11-13T05:07:54.865Z,100.0
2018-11-13T05:08:56.227Z,100.0
2018-11-13T05:09:57.634Z,100.0
2018-11-13T05:10:58.946Z,100.0
2018-11-13T05:12:00.306Z,100.0
2018-11-13T05:13:01.686Z,100.0
2018-11-13T05:14:03.036Z,100.0
2018-11-13T05:15:04.386Z,100.0
2018-11-13T05:16:05.757Z,100.0
2018-11-13T05:17:07.117Z,100.0
2018-11-13T05:18:08.477Z,100.0
2018-11-13T05:19:09.847Z,100.0
2018-11-13T05:20:11.203Z,100.0
2018-11-13T05:21:12.558Z,100.0
2018-11-13T05:22:13.920Z,100.0
2018-11-13T05:23:15.361Z,100.0
2018-11-13T05:24:16.671Z,100.0
2018-11-13T05:25:18.083Z,100.0
2018-11-13T05:26:19.447Z,100.0
2018-11-13T05:27:20.798Z,100.0
2018-11-13T05:28:22.179Z,100.0
2018-11-13T05:29:23.567Z,100.0
2018-11-13T05:30:24.927Z,100.0
2018-11-13T05:31:26.396Z,100.0
2018-11-13T05:32:27.752Z,100.0
2018-11-13T05:33:29.112Z,100.0
2018-11-13T05:34:30.471Z,100.0
2018-11-13T05:35:31.825Z,100.0
2018-11-13T05:36:33.173Z,100.0
2018-11-13T05:37:34.538Z,100.0
2018-11-13T05:38:35.887Z,100.0
2018-11-13T05:39:37.266Z,100.0
2018-11-13T05:40:38.608Z,100.0
2018-11-13T05:41:40.016Z,100.0
2018-11-13T05:42:41.333Z,100.0
2018-11-13T05:43:42.646Z,100.0
2018-11-13T05:44:44.011Z,100.0
2018-11-13T05:45:45.360Z,100.0
2018-11-13T05:46:46.730Z,100.0
2018-11-13T05:47:48.101Z,100.0
2018-11-13T05:48:49.441Z,100.0
2018-11-13T05:49:50.801Z,100.0
2018-11-13T05:50:52.162Z,100.0
2018-11-13T05:51:53.526Z,100.0
2018-11-13T05:52:54.886Z,100.0
2018-11-13T05:53:56.252Z,100.0
2018-11-13T05:54:57.621Z,100.0
2018-11-13T05:55:58.989Z,100.0
2018-11-13T05:57:00.346Z,100.0
2018-11-13T05:58:01.713Z,100.0
2018-11-13T05:59:03.072Z,100.0
2018-11-13T06:00:04.451Z,100.0
2018-11-13T06:01:05.796Z,100.0
2018-11-13T06:02:07.157Z,100.0
2018-11-13T06:03:08.517Z,100.0
2018-11-13T06:04:09.878Z,100.0
2018-11-13T06:05:11.241Z,100.0
2018-11-13T06:06:12.597Z,100.0
2018-11-13T06:07:13.966Z,100.0
2018-11-13T06:08:15.325Z,100.0
2018-11-13T06:09:16.676Z,100.0
2018-11-13T06:10:18.028Z,100.0
2018-11-13T06:11:19.391Z,100.0
2018-11-13T06:12:20.742Z,100.0
2018-11-13T06:13:22.101Z,100.0
2018-11-13T06:14:23.476Z,100.0
2018-11-13T06:15:24.841Z,100.0
2018-11-13T06:16:26.203Z,100.0
2018-11-13T06:17:27.563Z,100.0
2018-11-13T06:18:29.108Z,100.0
2018-11-13T06:19:30.486Z,100.0
2018-11-13T06:20:31.848Z,100.0
2018-11-13T06:21:33.207Z,100.0
2018-11-13T06:22:34.559Z,100.0
2018-11-13T06:23:35.916Z,100.0
2018-11-13T06:24:37.278Z,100.0
2018-11-13T06:25:38.631Z,100.0
2018-11-13T06:26:39.994Z,100.0
2018-11-13T06:27:41.349Z,100.0
2018-11-13T06:28:42.717Z,100.0
2018-11-13T06:29:44.158Z,100.0
2018-11-13T06:30:45.451Z,100.0
2018-11-13T06:31:46.808Z,100.0
2018-11-13T06:32:48.172Z,100.0
2018-11-13T06:33:49.532Z,100.0
2018-11-13T06:34:50.901Z,100.0
2018-11-13T06:35:52.257Z,100.0
2018-11-13T06:36:53.627Z,100.0
2018-11-13T06:37:54.983Z,100.0
2018-11-13T06:38:57.475Z,100.0
2018-11-13T06:39:58.724Z,100.0
2018-11-13T06:41:00.082Z,100.0
2018-11-13T06:42:01.452Z,100.0
2018-11-13T06:43:02.811Z,100.0
2018-11-13T06:44:04.181Z,100.0
2018-11-13T06:45:05.547Z,100.0
2018-11-13T06:46:06.906Z,100.0
2018-11-13T06:47:08.267Z,100.0
2018-11-13T06:48:09.623Z,100.0
2018-11-13T06:49:11.052Z,100.0
2018-11-13T06:50:12.346Z,100.0
2018-11-13T06:51:13.716Z,100.0
2018-11-13T06:52:15.074Z,100.0
2018-11-13T06:53:16.429Z,100.0
2018-11-13T06:54:17.790Z,100.0
2018-11-13T06:55:19.157Z,100.0
2018-11-13T06:56:20.513Z,100.0
2018-11-13T06:57:21.877Z,100.0
2018-11-13T06:58:23.249Z,100.0
2018-11-13T06:59:24.609Z,100.0
2018-11-13T07:00:25.948Z,100.0
2018-11-13T07:01:27.322Z,100.0
2018-11-13T07:02:28.668Z,100.0
2018-11-13T07:03:30.061Z,100.0
2018-11-13T07:04:31.423Z,100.0
2018-11-13T07:05:32.796Z,100.0
2018-11-13T07:06:34.152Z,100.0
2018-11-13T07:07:35.513Z,100.0
2018-11-13T07:08:36.902Z,100.0
2018-11-13T07:09:38.273Z,100.0
2018-11-13T07:10:39.679Z,100.0
2018-11-13T07:11:40.969Z,100.0
2018-11-13T07:12:42.331Z,100.0
2018-11-13T07:13:43.719Z,100.0
2018-11-13T07:14:45.078Z,100.0
2018-11-13T07:15:46.442Z,100.0
2018-11-13T07:16:47.804Z,100.0
2018-11-13T07:17:49.162Z,100.0
2018-11-13T07:18:50.539Z,100.0
2018-11-13T07:19:51.930Z,100.0
2018-11-13T07:20:53.281Z,100.0
2018-11-13T07:21:54.657Z,100.0
2018-11-13T07:22:56.022Z,100.0
2018-11-13T07:23:57.384Z,100.0
2018-11-13T07:24:58.732Z,100.0
2018-11-13T07:26:00.092Z,100.0
2018-11-13T07:27:01.532Z,100.0
2018-11-13T07:28:02.900Z,100.0
2018-11-13T07:29:04.157Z,100.0
2018-11-13T07:30:05.525Z,100.0
2018-11-13T07:31:06.894Z,100.0
2018-11-13T07:32:08.253Z,100.0
2018-11-13T07:33:09.621Z,100.0
2018-11-13T07:34:11.020Z,100.0
2018-11-13T07:35:12.347Z,100.0
2018-11-13T07:36:13.706Z,100.0
2018-11-13T07:37:15.058Z,100.0
2018-11-13T07:38:16.422Z,100.0
2018-11-13T07:39:17.826Z,100.0
2018-11-13T07:40:19.182Z,100.0
2018-11-13T07:41:20.560Z,100.0
2018-11-13T07:42:21.918Z,100.0
2018-11-13T07:43:23.284Z,100.0
2018-11-13T07:44:24.651Z,100.0
2018-11-13T07:45:26.011Z,100.0
2018-11-13T07:46:27.378Z,100.0
2018-11-13T07:47:28.806Z,100.0
2018-11-13T07:48:30.086Z,100.0
2018-11-13T07:49:31.463Z,100.0
2018-11-13T07:50:32.828Z,100.0
2018-11-13T07:51:34.192Z,100.0
2018-11-13T07:52:35.558Z,100.0
2018-11-13T07:53:36.987Z,100.0
2018-11-13T07:54:38.293Z,100.0
2018-11-13T07:55:39.654Z,100.0
2018-11-13T07:56:41.024Z,100.0
2018-11-13T07:57:42.373Z,100.0
2018-11-13T07:58:43.742Z,100.0
2018-11-13T07:59:45.111Z,100.0
2018-11-13T08:00:46.490Z,100.0
2018-11-13T08:01:47.851Z,100.0
2018-11-13T08:02:49.218Z,100.0
2018-11-13T08:03:50.574Z,100.0
2018-11-13T08:04:51.933Z,100.0
2018-11-13T08:05:53.294Z,100.0
2018-11-13T08:06:54.661Z,100.0
2018-11-13T08:07:56.024Z,100.0
2018-11-13T08:08:57.402Z,100.0
2018-11-13T08:09:58.829Z,100.0
2018-11-13T08:11:00.193Z,100.0
2018-11-13T08:12:01.554Z,100.0
2018-11-13T08:13:03.039Z,100.0
2018-11-13T08:14:04.270Z,100.0
2018-11-13T08:15:05.638Z,100.0
2018-11-13T08:16:07.007Z,100.0
2018-11-13T08:17:08.383Z,100.0
2018-11-13T08:18:09.751Z,100.0
2018-11-13T08:19:11.124Z,100.0
2018-11-13T08:20:12.514Z,100.0
2018-11-13T08:21:13.945Z,100.0
2018-11-13T08:22:15.364Z,100.0
2018-11-13T08:23:16.558Z,100.0
2018-11-13T08:24:17.921Z,100.0
2018-11-13T08:25:19.341Z,100.0
2018-11-13T08:26:20.650Z,100.0
2018-11-13T08:27:21.948Z,100.0
2018-11-13T08:28:23.349Z,100.0
2018-11-13T08:29:24.776Z,100.0
2018-11-13T08:30:26.014Z,100.0
2018-11-13T08:31:27.432Z,100.0
2018-11-13T08:32:28.748Z,100.0
2018-11-13T08:33:30.108Z,100.0
2018-11-13T08:34:31.472Z,100.0
2018-11-13T08:35:32.859Z,100.0
2018-11-13T08:36:34.194Z,100.0
2018-11-13T08:37:35.567Z,100.0
2018-11-13T08:38:36.946Z,100.0
2018-11-13T08:39:38.308Z,100.0
2018-11-13T08:40:39.668Z,100.0
2018-11-13T08:41:41.033Z,100.0
2018-11-13T08:42:42.400Z,100.0
2018-11-13T08:43:43.844Z,100.0
2018-11-13T08:44:45.088Z,100.0
2018-11-13T08:45:52.982Z,100.0
2018-11-13T08:46:54.352Z,100.0
2018-11-13T08:47:55.720Z,100.0
2018-11-13T08:48:57.082Z,100.0
2018-11-13T08:49:58.440Z,100.0
2018-11-13T08:50:59.804Z,100.0
2018-11-13T08:52:01.169Z,100.0
2018-11-13T08:53:02.534Z,100.0
2018-11-13T08:54:03.897Z,100.0
2018-11-13T08:55:05.263Z,100.0
2018-11-13T08:56:06.617Z,100.0
2018-11-13T08:57:07.983Z,100.0
2018-11-13T08:58:09.348Z,100.0
2018-11-13T08:59:10.872Z,100.0
2018-11-13T09:00:12.083Z,100.0
2018-11-13T09:01:13.452Z,100.0
2018-11-13T09:02:14.828Z,100.0
2018-11-13T09:03:16.213Z,100.0
2018-11-13T09:04:17.582Z,100.0
2018-11-13T09:05:19.032Z,100.0
2018-11-13T09:06:20.274Z,100.0
2018-11-13T09:07:21.649Z,100.0
2018-11-13T09:08:23.138Z,100.0
2018-11-13T09:09:24.507Z,100.0
2018-11-13T09:10:25.877Z,100.0
2018-11-13T09:11:27.305Z,100.0
2018-11-13T09:12:28.673Z,100.0
2018-11-13T09:13:29.983Z,100.0
2018-11-13T09:14:31.344Z,100.0
2018-11-13T09:15:32.712Z,100.0
2018-11-13T09:16:34.069Z,100.0
2018-11-13T09:17:35.428Z,100.0
2018-11-13T09:18:36.805Z,100.0
2018-11-13T09:19:38.366Z,100.0
2018-11-13T09:20:39.492Z,100.0
2018-11-13T09:21:40.867Z,100.0
2018-11-13T09:22:42.282Z,100.0
2018-11-13T09:23:43.596Z,100.0
2018-11-13T09:24:44.968Z,100.0
2018-11-13T09:25:46.338Z,100.0
2018-11-13T09:26:47.728Z,100.0
2018-11-13T09:27:49.089Z,100.0
2018-11-13T09:28:50.454Z,100.0
2018-11-13T09:29:51.881Z,100.0
2018-11-13T09:30:53.535Z,100.0
2018-11-13T09:31:54.835Z,100.0
2018-11-13T09:32:55.947Z,100.0
2018-11-13T09:33:57.283Z,100.0
2018-11-13T09:34:58.657Z,100.0
2018-11-13T09:36:00.031Z,100.0
2018-11-13T09:37:01.390Z,100.0
2018-11-13T09:38:02.753Z,100.0
2018-11-13T09:39:04.133Z,100.0
2018-11-13T09:40:05.478Z,100.0
2018-11-13T09:41:06.844Z,100.0
2018-11-13T09:42:08.204Z,100.0
2018-11-13T09:43:09.582Z,100.0
2018-11-13T09:44:10.950Z,100.0
2018-11-13T09:45:12.300Z,100.0
2018-11-13T09:46:13.669Z,100.0
2018-11-13T09:47:15.038Z,100.0
2018-11-13T09:48:16.393Z,100.0
2018-11-13T09:49:17.759Z,100.0
2018-11-13T09:50:19.124Z,100.0
2018-11-13T09:51:20.502Z,100.0
2018-11-13T09:52:21.864Z,100.0
2018-11-13T09:53:23.298Z,100.0
2018-11-13T09:54:24.570Z,100.0
2018-11-13T09:55:25.987Z,100.0
2018-11-13T09:56:27.371Z,100.0
2018-11-13T09:57:28.628Z,100.0
2018-11-13T09:58:29.992Z,100.0
2018-11-13T09:59:31.354Z,100.0
2018-11-13T10:00:32.875Z,100.0
2018-11-13T10:01:34.562Z,100.0
2018-11-13T10:02:35.873Z,100.0
2018-11-13T10:03:37.291Z,100.0
2018-11-13T10:04:38.636Z,100.0
2018-11-13T10:05:39.579Z,100.0
2018-11-13T10:06:40.786Z,100.0
2018-11-13T10:07:42.134Z,100.0
2018-11-13T10:08:43.502Z,100.0
2018-11-13T10:09:44.874Z,100.0
2018-11-13T10:10:46.289Z,100.0
2018-11-13T10:11:47.613Z,100.0
2018-11-13T10:12:48.975Z,100.0
2018-11-13T10:13:50.336Z,100.0
2018-11-13T10:14:51.704Z,100.0
2018-11-13T10:15:53.080Z,100.0
2018-11-13T10:16:54.434Z,100.0
2018-11-13T10:17:55.922Z,100.0
2018-11-13T10:18:57.133Z,100.0
2018-11-13T10:19:58.490Z,100.0
2018-11-13T10:20:59.854Z,100.0
2018-11-13T10:22:01.233Z,100.0
2018-11-13T10:23:02.589Z,100.0
2018-11-13T10:24:03.957Z,100.0
2018-11-13T10:25:05.322Z,100.0
2018-11-13T10:26:06.719Z,100.0
2018-11-13T10:27:08.113Z,100.0
2018-11-13T10:28:09.449Z,100.0
2018-11-13T10:29:10.743Z,100.0
2018-11-13T10:30:12.120Z,100.0
2018-11-13T10:31:13.498Z,100.0
2018-11-13T10:32:14.854Z,100.0
2018-11-13T10:33:16.228Z,100.0
2018-11-13T10:34:17.599Z,100.0
2018-11-13T10:35:18.951Z,100.0
2018-11-13T10:36:20.329Z,100.0
2018-11-13T10:37:21.731Z,100.0
2018-11-13T10:38:23.096Z,100.0
2018-11-13T10:39:24.463Z,100.0
2018-11-13T10:40:25.949Z,100.0
2018-11-13T10:41:27.222Z,100.0
2018-11-13T10:42:28.568Z,100.0
2018-11-13T10:43:29.929Z,100.0
2018-11-13T10:44:31.300Z,100.0
2018-11-13T10:45:32.666Z,100.0
2018-11-13T10:46:34.036Z,100.0
2018-11-13T10:47:35.401Z,100.0
2018-11-13T10:48:36.770Z,100.0
2018-11-13T10:49:38.123Z,100.0
2018-11-13T10:50:39.494Z,100.0
2018-11-13T10:51:40.849Z,100.0
2018-11-13T10:52:42.220Z,100.0
2018-11-13T10:53:43.580Z,100.0
2018-11-13T10:54:44.956Z,100.0
2018-11-13T10:55:46.324Z,100.0
2018-11-13T10:56:47.695Z,100.0
2018-11-13T10:57:49.066Z,100.0
2018-11-13T10:58:50.431Z,100.0
2018-11-13T10:59:51.795Z,100.0
2018-11-13T11:00:53.161Z,100.0
2018-11-13T11:01:54.529Z,100.0
2018-11-13T11:02:55.966Z,100.0
2018-11-13T11:03:57.255Z,100.0
2018-11-13T11:04:58.637Z,100.0
2018-11-13T11:05:59.993Z,100.0
2018-11-13T11:07:01.364Z,100.0
2018-11-13T11:08:02.755Z,100.0
2018-11-13T11:09:04.124Z,100.0
2018-11-13T11:10:05.535Z,100.0
2018-11-13T11:11:06.909Z,100.0
2018-11-13T11:12:08.278Z,100.0
2018-11-13T11:13:09.696Z,100.0
2018-11-13T11:14:10.969Z,100.0
2018-11-13T11:15:12.358Z,100.0
2018-11-13T11:16:13.723Z,100.0
2018-11-13T11:17:15.090Z,100.0
2018-11-13T11:18:16.478Z,100.0
2018-11-13T11:19:17.820Z,100.0
2018-11-13T11:20:19.116Z,100.0
2018-11-13T11:21:20.479Z,100.0
2018-11-13T11:22:21.859Z,100.0
2018-11-13T11:23:23.308Z,100.0
2018-11-13T11:24:24.620Z,100.0
2018-11-13T11:25:26.098Z,100.0
2018-11-13T11:26:27.399Z,100.0
2018-11-13T11:27:28.735Z,100.0
2018-11-13T11:28:30.131Z,100.0
2018-11-13T11:29:31.504Z,100.0
2018-11-13T11:30:32.877Z,100.0
2018-11-13T11:31:34.245Z,100.0
2018-11-13T11:32:35.619Z,100.0
2018-11-13T11:33:37.001Z,100.0
2018-11-13T11:34:38.355Z,100.0
2018-11-13T11:35:39.736Z,100.0
2018-11-13T11:36:41.111Z,100.0
2018-11-13T11:37:42.507Z,100.0
2018-11-13T11:38:44.056Z,100.0
2018-11-13T11:39:45.230Z,100.0
2018-11-13T11:40:46.593Z,100.0
2018-11-13T11:41:47.965Z,100.0
2018-11-13T11:42:49.367Z,100.0
2018-11-13T11:43:50.741Z,100.0
2018-11-13T11:44:52.191Z,100.0
2018-11-13T11:45:53.649Z,100.0
2018-11-13T11:46:55.064Z,100.0
2018-11-13T11:47:56.477Z,100.0
2018-11-13T11:48:57.899Z,100.0
2018-11-13T11:49:59.291Z,100.0
2018-11-13T11:51:00.759Z,99.9
2018-11-13T11:52:02.149Z,100.0
2018-11-13T11:53:03.577Z,100.0
2018-11-13T11:54:04.976Z,99.6
2018-11-13T11:55:06.350Z,99.4
2018-11-13T11:56:07.788Z,99.8
2018-11-13T11:57:09.211Z,99.7
2018-11-13T11:58:10.641Z,99.8
2018-11-13T11:59:12.051Z,99.6
2018-11-13T12:00:13.460Z,99.8
2018-11-13T12:01:14.884Z,99.5
2018-11-13T12:02:16.333Z,99.2
2018-11-13T12:03:17.673Z,99.1
2018-11-13T12:04:19.084Z,98.8
2018-11-13T12:05:20.530Z,98.4
2018-11-13T12:06:22.082Z,98.9
2018-11-13T12:07:23.481Z,98.4
2018-11-13T12:08:24.864Z,98.2
2018-11-13T12:09:26.269Z,98.6
2018-11-13T12:10:27.673Z,98.2
2018-11-13T12:11:29.122Z,98.3
2018-11-13T12:12:30.531Z,98.2
2018-11-13T12:13:31.945Z,98.3
2018-11-13T12:14:33.381Z,98.4
2018-11-13T12:15:34.785Z,98.5
2018-11-13T12:16:36.176Z,98.4
2018-11-13T12:17:37.607Z,98.4
2018-11-13T12:18:39.163Z,98.6
2018-11-13T12:19:40.526Z,97.9
2018-11-13T12:20:41.932Z,97.8
2018-11-13T12:21:43.326Z,97.5
2018-11-13T12:22:44.769Z,97.6
2018-11-13T12:23:46.136Z,96.9
2018-11-13T12:24:47.545Z,97.3
2018-11-13T12:25:49.103Z,97.0
2018-11-13T12:26:50.372Z,96.9
2018-11-13T12:27:51.809Z,96.7
2018-11-13T12:28:53.270Z,96.5
2018-11-13T12:29:54.676Z,96.5
2018-11-13T12:30:56.086Z,96.9
2018-11-13T12:31:57.495Z,96.8
2018-11-13T12:32:58.874Z,96.8
2018-11-13T12:34:00.267Z,97.1
2018-11-13T12:35:01.717Z,96.5
2018-11-13T12:36:03.110Z,96.7
2018-11-13T12:37:04.542Z,96.8
2018-11-13T12:38:05.972Z,96.7
2018-11-13T12:39:07.355Z,96.1
2018-11-13T12:40:08.735Z,96.1
2018-11-13T12:41:10.239Z,95.8
2018-11-13T12:42:11.631Z,96.1
2018-11-13T12:43:13.046Z,96.5
2018-11-13T12:44:14.450Z,96.7
2018-11-13T12:45:15.876Z,96.7
2018-11-13T12:46:17.274Z,96.6
2018-11-13T12:47:18.751Z,96.1
2018-11-13T12:48:20.104Z,96.4
2018-11-13T12:49:21.607Z,96.4
2018-11-13T12:50:23.045Z,96.1
2018-11-13T12:51:24.456Z,96.4
2018-11-13T12:52:25.837Z,95.7
2018-11-13T12:53:27.230Z,95.8
2018-11-13T12:54:28.638Z,96.0
2018-11-13T12:55:30.111Z,96.4
2018-11-13T12:56:31.605Z,95.3
2018-11-13T12:57:32.941Z,95.0
2018-11-13T12:58:34.365Z,95.3
2018-11-13T12:59:35.765Z,95.4
2018-11-13T13:00:37.165Z,95.2
2018-11-13T13:01:38.595Z,95.2
2018-11-13T13:02:40.005Z,95.3
2018-11-13T13:03:41.396Z,95.3
2018-11-13T13:04:42.866Z,95.5
2018-11-13T13:05:44.240Z,95.5
2018-11-13T13:06:45.655Z,94.9
2018-11-13T13:07:47.026Z,94.6
2018-11-13T13:08:48.555Z,94.7
2018-11-13T13:09:49.900Z,94.7
2018-11-13T13:10:52.270Z,94.7
2018-11-13T13:11:53.645Z,94.3
2018-11-13T13:12:55.030Z,94.2
2018-11-13T13:13:56.406Z,94.9
2018-11-13T13:14:57.854Z,94.5
2018-11-13T13:15:59.176Z,94.3
2018-11-13T13:17:00.545Z,94.2
2018-11-13T13:18:01.921Z,94.1